createdAt,value
2018-11-06T00:01:17.895Z,8.10
2018-11-06T00:03:55.969Z,8.10
2018-11-06T00:30:32.598Z,8.00
2018-11-06T00:47:02.081Z,8.00
2018-11-06T00:49:31.781Z,7.80
2018-11-06T00:52:02.608Z,7.70
2018-11-06T00:54:34.694Z,7.70
2018-11-06T00:57:04.266Z,7.70
2018-11-06T00:59:38.752Z,7.60
2018-11-06T01:02:12.244Z,7.60
2018-11-06T01:04:43.095Z,7.60
2018-11-06T01:07:24.525Z,7.60
2018-11-06T01:10:05.420Z,7.50
2018-11-06T01:12:36.755Z,7.50
2018-11-06T01:15:11.228Z,7.40
2018-11-06T01:17:41.985Z,7.50
2018-11-06T01:20:25.051Z,7.50
2018-11-06T01:23:00.487Z,7.50
2018-11-06T01:25:33.827Z,7.60
2018-11-06T01:28:07.257Z,7.70
2018-11-06T01:30:36.362Z,7.80
2018-11-06T01:33:09.982Z,7.80
2018-11-06T01:35:44.644Z,7.80
2018-11-06T01:38:20.513Z,7.80
2018-11-06T01:40:55.741Z,7.80
2018-11-06T01:43:26.082Z,7.90
2018-11-06T01:45:55.430Z,7.90
2018-11-06T01:48:35.218Z,7.80
2018-11-06T01:51:06.511Z,7.80
2018-11-06T01:53:43.138Z,7.80
2018-11-06T01:56:12.449Z,7.90
2018-11-06T01:58:44.810Z,7.90
2018-11-06T02:01:16.522Z,7.80
2018-11-06T02:06:52.283Z,7.80
2018-11-06T02:09:28.166Z,7.70
2018-11-06T02:12:04.359Z,7.70
2018-11-06T02:14:35.427Z,7.70
2018-11-06T02:17:05.424Z,7.70
2018-11-06T02:19:37.363Z,7.70
2018-11-06T02:22:12.567Z,7.70
2018-11-06T02:24:42.377Z,7.60
2018-11-06T02:27:15.241Z,7.70
2018-11-06T02:29:57.533Z,7.70
2018-11-06T02:32:35.272Z,7.70
2018-11-06T02:35:12.349Z,7.60
2018-11-06T02:37:45.385Z,7.60
2018-11-06T02:40:16.588Z,7.60
2018-11-06T02:42:46.124Z,7.60
2018-11-06T02:45:30.152Z,7.60
2018-11-06T02:48:00.691Z,7.60
2018-11-06T02:50:31.711Z,7.60
2018-11-06T02:53:08.245Z,7.60
2018-11-06T02:55:38.597Z,7.60
2018-11-06T02:58:12.623Z,7.60
2018-11-06T03:00:43.430Z,7.60
2018-11-06T03:03:19.842Z,7.60
2018-11-06T03:05:59.029Z,7.60
2018-11-06T03:08:28.306Z,7.50
2018-11-06T03:10:57.462Z,7.60
2018-11-06T03:13:27.254Z,7.50
2018-11-06T03:15:56.820Z,7.50
2018-11-06T03:18:29.415Z,7.50
2018-11-06T03:20:58.659Z,7.50
2018-11-06T03:23:27.803Z,7.40
2018-11-06T03:25:56.965Z,7.40
2018-11-06T03:28:32.016Z,7.40
2018-11-06T03:31:01.538Z,7.40
2018-11-06T03:33:30.800Z,7.40
2018-11-06T03:35:59.989Z,7.40
2018-11-06T03:38:29.102Z,7.40
2018-11-06T03:40:58.483Z,7.40
2018-11-06T03:43:27.628Z,7.40
2018-11-06T03:45:56.626Z,7.40
2018-11-06T03:48:25.693Z,7.40
2018-11-06T03:50:55.041Z,7.40
2018-11-06T03:53:24.483Z,7.40
2018-11-06T03:55:53.573Z,7.40
2018-11-06T03:58:23.134Z,7.40
2018-11-06T04:00:52.253Z,7.40
2018-11-06T04:03:21.679Z,7.40
2018-11-06T04:05:50.971Z,7.40
2018-11-06T04:08:19.998Z,7.40
2018-11-06T04:10:49.175Z,7.40
2018-11-06T04:13:18.449Z,7.40
2018-11-06T04:15:47.575Z,7.40
2018-11-06T04:18:16.705Z,7.50
2018-11-06T04:20:45.838Z,7.50
2018-11-06T04:23:16.116Z,7.50
2018-11-06T04:25:45.228Z,7.50
2018-11-06T04:28:14.359Z,7.50
2018-11-06T04:30:43.543Z,7.50
2018-11-06T04:33:12.915Z,7.50
2018-11-06T04:35:42.212Z,7.60
2018-11-06T04:38:11.495Z,7.50
2018-11-06T04:40:40.904Z,7.60
2018-11-06T04:43:12.767Z,7.60
2018-11-06T04:45:44.076Z,7.60
2018-11-06T04:48:13.445Z,7.60
2018-11-06T04:50:42.709Z,7.60
2018-11-06T04:53:12.319Z,7.60
2018-11-06T04:55:42.061Z,7.60
2018-11-06T04:58:13.265Z,7.70
2018-11-06T05:00:45.029Z,7.60
2018-11-06T05:03:14.523Z,7.60
2018-11-06T05:05:46.025Z,7.70
2018-11-06T05:08:21.646Z,7.70
2018-11-06T05:11:00.024Z,7.80
2018-11-06T05:13:42.819Z,7.80
2018-11-06T05:16:15.491Z,7.80
2018-11-06T05:18:58.277Z,7.80
2018-11-06T05:21:33.116Z,7.80
2018-11-06T05:24:02.706Z,7.80
2018-11-06T05:26:31.872Z,7.80
2018-11-06T05:29:02.221Z,7.80
2018-11-06T05:31:32.507Z,7.70
2018-11-06T05:34:01.631Z,7.80
2018-11-06T05:36:30.733Z,7.70
2018-11-06T05:39:01.384Z,7.70
2018-11-06T05:41:31.870Z,7.80
2018-11-06T05:44:02.318Z,7.70
2018-11-06T05:46:31.411Z,7.70
2018-11-06T05:49:00.372Z,7.70
2018-11-06T05:51:29.645Z,7.80
2018-11-06T05:53:58.877Z,7.80
2018-11-06T05:56:27.920Z,7.80
2018-11-06T05:58:57.275Z,7.80
2018-11-06T06:01:28.756Z,7.80
2018-11-06T06:03:57.833Z,7.90
2018-11-06T06:06:27.492Z,7.80
2018-11-06T06:08:56.903Z,7.80
2018-11-06T06:11:26.204Z,7.80
2018-11-06T06:13:55.314Z,7.90
2018-11-06T06:16:24.387Z,7.90
2018-11-06T06:18:53.349Z,7.90
2018-11-06T06:21:22.483Z,7.90
2018-11-06T06:23:51.823Z,7.90
2018-11-06T06:26:20.950Z,7.90
2018-11-06T06:28:50.195Z,7.90
2018-11-06T06:31:21.507Z,7.90
2018-11-06T06:33:50.566Z,7.90
2018-11-06T06:36:19.988Z,7.90
2018-11-06T06:38:49.110Z,7.90
2018-11-06T06:41:18.310Z,7.90
2018-11-06T06:43:48.117Z,7.90
2018-11-06T06:46:17.192Z,7.90
2018-11-06T06:48:46.969Z,7.90
2018-11-06T06:51:16.802Z,7.90
2018-11-06T06:53:46.088Z,7.90
2018-11-06T06:56:15.221Z,7.80
2018-11-06T06:58:44.682Z,7.80
2018-11-06T07:01:14.677Z,7.80
2018-11-06T07:03:46.152Z,7.90
2018-11-06T07:06:15.296Z,7.90
2018-11-06T07:08:44.803Z,7.90
2018-11-06T07:11:14.641Z,7.90
2018-11-06T07:13:43.949Z,7.80
2018-11-06T07:16:13.135Z,7.80
2018-11-06T07:18:43.655Z,7.80
2018-11-06T07:21:12.702Z,7.70
2018-11-06T07:23:45.158Z,7.80
2018-11-06T07:26:14.390Z,7.80
2018-11-06T07:28:44.635Z,7.80
2018-11-06T07:31:13.978Z,7.80
2018-11-06T07:33:43.354Z,7.80
2018-11-06T07:36:21.205Z,7.90
2018-11-06T07:38:51.293Z,7.90
2018-11-06T07:41:20.625Z,7.90
2018-11-06T07:43:50.062Z,7.90
2018-11-06T07:46:19.131Z,7.90
2018-11-06T07:48:48.559Z,7.90
2018-11-06T07:51:18.171Z,8.00
2018-11-06T07:53:47.300Z,8.00
2018-11-06T07:56:17.084Z,8.10
2018-11-06T07:58:46.205Z,8.10
2018-11-06T08:01:15.416Z,8.10
2018-11-06T08:03:44.527Z,8.00
2018-11-06T08:06:13.890Z,8.10
2018-11-06T08:08:44.366Z,8.20
2018-11-06T08:11:13.455Z,8.40
2018-11-06T08:13:42.512Z,8.40
2018-11-06T08:16:11.810Z,8.40
2018-11-06T08:18:48.327Z,8.40
2018-11-06T08:21:17.533Z,8.50
2018-11-06T08:23:46.915Z,8.50
2018-11-06T08:26:16.296Z,8.60
2018-11-06T08:29:06.274Z,8.60
2018-11-06T08:31:42.185Z,8.60
2018-11-06T08:34:11.165Z,8.60
2018-11-06T08:36:40.730Z,8.60
2018-11-06T08:39:11.253Z,8.60
2018-11-06T08:41:41.283Z,8.60
2018-11-06T08:44:11.146Z,8.50
2018-11-06T08:46:40.762Z,8.60
2018-11-06T08:49:09.948Z,8.80
2018-11-06T08:51:39.203Z,8.90
2018-11-06T08:54:09.095Z,8.90
2018-11-06T08:56:38.817Z,8.90
2018-11-06T08:59:08.149Z,8.90
2018-11-06T09:01:37.321Z,9.00
2018-11-06T09:04:07.164Z,9.10
2018-11-06T09:06:36.803Z,9.20
2018-11-06T09:09:07.635Z,9.20
2018-11-06T09:11:37.243Z,9.30
2018-11-06T09:14:06.529Z,9.30
2018-11-06T09:16:44.097Z,9.30
2018-11-06T09:19:14.412Z,9.40
2018-11-06T09:21:44.276Z,9.50
2018-11-06T09:24:13.604Z,9.60
2018-11-06T09:26:42.925Z,9.60
2018-11-06T09:29:13.409Z,9.70
2018-11-06T09:31:42.551Z,9.70
2018-11-06T09:34:13.055Z,9.60
2018-11-06T09:36:42.335Z,9.60
2018-11-06T09:39:12.297Z,9.60
2018-11-06T09:41:44.472Z,9.60
2018-11-06T09:44:14.016Z,9.70
2018-11-06T09:46:53.856Z,9.70
2018-11-06T09:49:23.642Z,9.60
2018-11-06T09:51:53.200Z,9.40
2018-11-06T09:54:22.343Z,9.40
2018-11-06T09:56:51.567Z,9.30
2018-11-06T09:59:20.853Z,9.20
2018-11-06T10:01:50.285Z,9.10
2018-11-06T10:04:19.340Z,9.10
2018-11-06T10:06:49.425Z,9.20
2018-11-06T10:09:18.364Z,9.20
2018-11-06T10:11:47.788Z,9.10
2018-11-06T10:14:16.885Z,9.10
2018-11-06T10:16:46.174Z,8.90
2018-11-06T10:19:16.727Z,8.90
2018-11-06T10:21:45.890Z,8.90
2018-11-06T10:24:15.134Z,8.80
2018-11-06T10:26:44.960Z,8.80
2018-11-06T10:29:14.358Z,8.70
2018-11-06T10:31:43.690Z,8.80
2018-11-06T10:34:13.656Z,8.80
2018-11-06T10:36:43.163Z,8.80
2018-11-06T10:39:14.443Z,8.90
2018-11-06T10:41:44.604Z,9.00
2018-11-06T10:44:13.719Z,9.20
2018-11-06T10:46:43.547Z,9.40
2018-11-06T10:49:12.877Z,9.60
2018-11-06T10:51:42.145Z,9.80
2018-11-06T10:54:11.394Z,10.00
2018-11-06T10:56:44.412Z,10.10
2018-11-06T10:59:14.112Z,10.30
2018-11-06T11:01:48.612Z,10.40
2018-11-06T11:04:20.190Z,10.40
2018-11-06T11:06:49.782Z,10.50
2018-11-06T11:09:19.079Z,10.60
2018-11-06T11:11:53.709Z,10.80
2018-11-06T11:14:30.917Z,10.80
2018-11-06T11:17:24.264Z,10.80
2018-11-06T11:19:58.137Z,10.80
2018-11-06T11:22:28.151Z,10.90
2018-11-06T11:24:59.250Z,10.90
2018-11-06T11:27:29.346Z,10.90
2018-11-06T11:29:58.535Z,10.90
2018-11-06T11:32:27.873Z,10.90
2018-11-06T11:34:57.856Z,10.90
2018-11-06T11:37:27.389Z,11.00
2018-11-06T11:39:56.723Z,11.00
2018-11-06T11:42:25.911Z,11.00
2018-11-06T11:45:02.957Z,11.00
2018-11-06T11:47:35.583Z,11.10
2018-11-06T11:50:05.396Z,11.10
2018-11-06T11:52:34.754Z,11.10
2018-11-06T11:55:04.068Z,11.10
2018-11-06T11:57:33.247Z,11.20
2018-11-06T12:00:06.849Z,11.20
2018-11-06T12:02:36.718Z,11.20
2018-11-06T12:05:16.655Z,11.20
2018-11-06T12:07:46.485Z,11.30
2018-11-06T12:10:16.029Z,11.40
2018-11-06T12:12:45.458Z,11.40
2018-11-06T12:15:17.210Z,11.50
2018-11-06T12:17:47.235Z,11.50
2018-11-06T12:20:17.175Z,11.50
2018-11-06T12:22:46.504Z,11.60
2018-11-06T12:25:16.731Z,11.60
2018-11-06T12:27:45.790Z,11.70
2018-11-06T12:30:15.985Z,11.70
2018-11-06T12:32:46.075Z,11.80
2018-11-06T12:35:17.019Z,11.80
2018-11-06T12:37:46.849Z,11.90
2018-11-06T12:40:16.084Z,11.90
2018-11-06T12:42:45.198Z,12.00
2018-11-06T12:45:18.109Z,12.00
2018-11-06T12:47:47.560Z,12.10
2018-11-06T12:50:17.903Z,12.20
2018-11-06T12:52:48.443Z,12.30
2018-11-06T12:55:18.077Z,12.40
2018-11-06T12:57:47.188Z,12.50
2018-11-06T13:00:17.502Z,12.50
2018-11-06T13:02:47.240Z,12.50
2018-11-06T13:05:16.455Z,12.50
2018-11-06T13:07:46.592Z,12.50
2018-11-06T13:10:17.671Z,12.40
2018-11-06T13:12:46.998Z,12.40
2018-11-06T13:15:17.870Z,12.40
2018-11-06T13:17:46.684Z,12.40
2018-11-06T13:20:16.736Z,12.40
2018-11-06T13:22:46.728Z,12.40
2018-11-06T13:25:15.720Z,12.50
2018-11-06T13:27:45.115Z,12.50
2018-11-06T13:30:16.483Z,12.50
2018-11-06T13:32:46.583Z,12.50
2018-11-06T13:35:20.560Z,12.50
2018-11-06T13:37:49.888Z,12.50
2018-11-06T13:40:19.114Z,12.50
2018-11-06T13:42:48.613Z,12.50
2018-11-06T13:45:20.708Z,12.50
2018-11-06T13:47:49.985Z,12.50
2018-11-06T13:50:19.259Z,12.50
2018-11-06T13:52:48.331Z,12.40
2018-11-06T13:55:20.810Z,12.40
2018-11-06T13:57:49.996Z,12.30
2018-11-06T14:00:20.164Z,12.30
2018-11-06T14:02:50.725Z,12.30
2018-11-06T14:05:20.252Z,12.30
2018-11-06T14:07:50.598Z,12.30
2018-11-06T14:10:19.857Z,12.30
2018-11-06T14:12:50.479Z,12.20
2018-11-06T14:15:19.872Z,12.20
2018-11-06T14:17:49.306Z,12.20
2018-11-06T14:20:25.734Z,12.10
2018-11-06T14:22:56.132Z,12.10
2018-11-06T14:25:25.876Z,12.00
2018-11-06T14:27:55.326Z,12.00
2018-11-06T14:30:25.820Z,12.00
2018-11-06T14:32:55.194Z,12.00
2018-11-06T14:35:25.199Z,11.90
2018-11-06T14:37:54.430Z,11.90
2018-11-06T14:40:25.599Z,11.90
2018-11-06T14:42:58.143Z,11.90
2018-11-06T14:45:27.656Z,11.90
2018-11-06T14:47:57.923Z,11.90
2018-11-06T14:50:27.086Z,12.00
2018-11-06T14:52:56.939Z,11.90
2018-11-06T14:55:26.140Z,11.90
2018-11-06T14:57:55.404Z,11.90
2018-11-06T15:00:24.607Z,11.80
2018-11-06T15:02:59.786Z,11.80
2018-11-06T15:05:29.241Z,11.70
2018-11-06T15:07:58.534Z,11.70
2018-11-06T15:10:27.848Z,11.70
2018-11-06T15:12:57.153Z,11.70
2018-11-06T15:15:27.169Z,11.70
2018-11-06T15:17:56.594Z,11.70
2018-11-06T15:20:25.818Z,11.60
2018-11-06T15:22:59.040Z,11.60
2018-11-06T15:25:28.185Z,11.50
2018-11-06T15:27:57.512Z,11.50
2018-11-06T15:30:26.757Z,11.50
2018-11-06T15:32:56.363Z,11.40
2018-11-06T15:35:26.124Z,11.40
2018-11-06T15:37:55.299Z,11.40
2018-11-06T15:40:25.611Z,11.30
2018-11-06T15:42:54.815Z,11.30
2018-11-06T15:45:24.042Z,11.30
2018-11-06T15:47:53.310Z,11.30
2018-11-06T15:50:22.718Z,11.20
2018-11-06T15:52:53.836Z,11.20
2018-11-06T15:55:23.203Z,11.10
2018-11-06T15:57:54.412Z,11.10
2018-11-06T16:00:24.483Z,11.10
2018-11-06T16:02:53.747Z,11.00
2018-11-06T16:05:23.331Z,11.00
2018-11-06T16:07:53.302Z,11.00
2018-11-06T16:10:23.425Z,11.00
2018-11-06T16:12:53.156Z,11.00
2018-11-06T16:15:32.259Z,10.90
2018-11-06T16:18:01.437Z,10.90
2018-11-06T16:20:30.771Z,10.90
2018-11-06T16:23:00.044Z,10.80
2018-11-06T16:25:29.464Z,10.80
2018-11-06T16:28:00.192Z,10.80
2018-11-06T16:30:29.426Z,10.80
2018-11-06T16:32:58.669Z,10.80
2018-11-06T16:35:28.009Z,10.70
2018-11-06T16:37:57.704Z,10.70
2018-11-06T16:40:27.747Z,10.70
2018-11-06T16:42:57.466Z,10.60
2018-11-06T16:45:28.137Z,10.60
2018-11-06T16:47:57.495Z,10.60
2018-11-06T16:50:26.845Z,10.60
2018-11-06T16:52:56.805Z,10.50
2018-11-06T16:55:26.218Z,10.50
2018-11-06T16:58:10.130Z,10.50
2018-11-06T17:00:44.930Z,10.50
2018-11-06T17:03:14.203Z,10.50
2018-11-06T17:05:44.928Z,10.40
2018-11-06T17:08:14.119Z,10.40
2018-11-06T17:10:43.571Z,10.40
2018-11-06T17:13:13.099Z,10.40
2018-11-06T17:15:59.953Z,10.40
2018-11-06T17:18:30.201Z,10.40
2018-11-06T17:21:03.161Z,10.40
2018-11-06T17:23:32.825Z,10.40
2018-11-06T17:26:02.740Z,10.40
2018-11-06T17:28:32.537Z,10.40
2018-11-06T17:31:18.280Z,10.40
2018-11-06T17:33:56.094Z,10.30
2018-11-06T17:36:27.910Z,10.30
2018-11-06T17:39:03.345Z,10.30
2018-11-06T17:44:33.155Z,10.20
2018-11-06T17:47:02.820Z,10.20
2018-11-06T17:49:39.950Z,10.20
2018-11-06T17:52:24.121Z,10.30
2018-11-06T17:55:03.834Z,10.30
2018-11-06T17:57:37.924Z,10.30
2018-11-06T18:00:13.026Z,10.30
2018-11-06T18:05:54.082Z,10.20
2018-11-06T18:08:30.647Z,10.10
2018-11-06T18:11:01.582Z,10.20
2018-11-06T18:19:32.730Z,10.30
2018-11-06T18:22:02.818Z,10.20
2018-11-06T18:24:32.830Z,10.20
2018-11-06T18:27:23.583Z,10.20
2018-11-06T18:29:53.118Z,10.10
2018-11-06T18:32:22.223Z,10.10
2018-11-06T18:34:51.407Z,10.10
2018-11-06T18:37:21.680Z,10.00
2018-11-06T18:39:50.924Z,10.00
2018-11-06T18:42:33.570Z,10.00
2018-11-06T18:45:02.721Z,10.10
2018-11-06T18:47:32.659Z,10.10
2018-11-06T18:50:02.494Z,10.10
2018-11-06T18:52:32.651Z,10.10
2018-11-06T18:55:01.881Z,10.10
2018-11-06T18:57:31.342Z,10.10
2018-11-06T19:00:00.715Z,10.20
2018-11-06T19:02:30.042Z,10.20
2018-11-06T19:04:59.371Z,10.20
2018-11-06T19:07:28.695Z,10.20
2018-11-06T19:09:58.937Z,10.20
2018-11-06T19:12:29.309Z,10.20
2018-11-06T19:14:58.679Z,10.20
2018-11-06T19:17:27.951Z,10.20
2018-11-06T19:19:57.164Z,10.30
2018-11-06T19:22:26.368Z,10.30
2018-11-06T19:24:55.379Z,10.20
2018-11-06T19:27:34.866Z,10.30
2018-11-06T19:30:04.731Z,10.30
2018-11-06T19:32:34.848Z,10.30
2018-11-06T19:35:04.259Z,10.30
2018-11-06T19:37:33.510Z,10.30
2018-11-06T19:40:03.839Z,10.40
2018-11-06T19:42:32.920Z,10.30
2018-11-06T19:45:01.992Z,10.30
2018-11-06T19:47:31.858Z,10.40
2018-11-06T19:50:00.913Z,10.40
2018-11-06T19:52:30.149Z,10.40
2018-11-06T19:54:59.302Z,10.40
2018-11-06T19:57:28.449Z,10.30
2018-11-06T19:59:57.907Z,10.30
2018-11-06T20:02:29.016Z,10.30
2018-11-06T20:04:58.351Z,10.20
2018-11-06T20:07:27.672Z,10.20
2018-11-06T20:09:56.906Z,10.20
2018-11-06T20:12:26.317Z,10.20
2018-11-06T20:14:56.501Z,10.20
2018-11-06T20:17:26.332Z,10.20
2018-11-06T20:19:56.247Z,10.20
2018-11-06T20:22:25.584Z,10.20
2018-11-06T20:24:54.827Z,10.20
2018-11-06T20:27:25.090Z,10.20
2018-11-06T20:29:54.389Z,10.20
2018-11-06T20:32:30.872Z,10.10
2018-11-06T20:35:00.171Z,10.10
2018-11-06T20:37:29.639Z,10.10
2018-11-06T20:39:59.770Z,10.10
2018-11-06T20:42:29.137Z,10.00
2018-11-06T20:45:07.933Z,9.90
2018-11-06T20:47:40.415Z,9.90
2018-11-06T20:50:28.528Z,9.90
2018-11-06T20:52:58.302Z,9.80
2018-11-06T20:55:28.069Z,9.80
2018-11-06T20:57:58.456Z,9.80
2018-11-06T21:00:28.747Z,9.80
2018-11-06T21:03:01.272Z,9.80
2018-11-06T21:05:31.889Z,9.70
2018-11-06T21:08:02.057Z,9.70
2018-11-06T21:10:32.009Z,9.70
2018-11-06T21:13:01.238Z,9.60
2018-11-06T21:15:30.426Z,9.60
2018-11-06T21:17:59.785Z,9.70
2018-11-06T21:20:29.201Z,9.70
2018-11-06T21:22:58.496Z,9.70
2018-11-06T21:25:28.045Z,9.70
2018-11-06T21:27:59.205Z,9.70
2018-11-06T21:30:28.362Z,9.70
2018-11-06T21:32:58.149Z,9.60
2018-11-06T21:35:28.909Z,9.60
2018-11-06T21:37:59.458Z,9.60
2018-11-06T21:40:30.923Z,9.60
2018-11-06T21:43:04.791Z,9.60
2018-11-06T21:45:34.683Z,9.60
2018-11-06T21:48:04.246Z,9.60
2018-11-06T21:50:33.520Z,9.50
2018-11-06T21:53:03.208Z,9.50
2018-11-06T21:55:38.833Z,9.50
2018-11-06T21:58:09.442Z,9.50
2018-11-06T22:00:39.172Z,9.40
2018-11-06T22:03:11.930Z,9.50
2018-11-06T22:05:41.079Z,9.50
2018-11-06T22:08:22.212Z,9.50
2018-11-06T22:10:53.314Z,9.40
2018-11-06T22:13:22.698Z,9.50
2018-11-06T22:15:52.852Z,9.50
2018-11-06T22:18:22.062Z,9.40
2018-11-06T22:20:51.152Z,9.40
2018-11-06T22:23:21.677Z,9.30
2018-11-06T22:25:50.842Z,9.30
2018-11-06T22:28:20.166Z,9.20
2018-11-06T22:30:49.482Z,9.20
2018-11-06T22:33:18.544Z,9.30
2018-11-06T22:35:47.634Z,9.30
2018-11-06T22:38:17.860Z,9.20
2018-11-06T22:40:46.934Z,9.20
2018-11-06T22:43:16.738Z,9.30
2018-11-06T22:45:45.796Z,9.30
2018-11-06T22:48:14.941Z,9.20
2018-11-06T22:50:44.684Z,9.20
2018-11-06T22:53:15.028Z,9.20
2018-11-06T22:55:44.175Z,9.20
2018-11-06T22:58:23.551Z,9.10
2018-11-06T23:00:59.085Z,9.20
2018-11-06T23:03:28.414Z,9.20
2018-11-06T23:06:02.079Z,9.10
2018-11-06T23:08:31.213Z,9.10
2018-11-06T23:11:04.445Z,9.00
2018-11-06T23:13:33.913Z,9.00
2018-11-06T23:16:05.679Z,9.10
2018-11-06T23:18:35.050Z,9.10
2018-11-06T23:21:05.342Z,9.10
2018-11-06T23:23:34.758Z,9.10
2018-11-06T23:26:03.990Z,9.00
2018-11-06T23:28:45.810Z,8.90
2018-11-06T23:31:16.380Z,8.90
2018-11-06T23:33:47.884Z,8.90
2018-11-06T23:36:18.728Z,8.80
2018-11-06T23:38:48.115Z,8.80
2018-11-06T23:41:17.283Z,8.70
2018-11-06T23:43:46.359Z,8.60
2018-11-06T23:46:15.498Z,8.60
2018-11-06T23:48:44.968Z,8.60
2018-11-06T23:51:15.618Z,8.60
2018-11-06T23:53:46.052Z,8.50
2018-11-06T23:56:15.227Z,8.50
2018-11-06T23:58:44.552Z,8.60
